Time;durP1;ratioP1;P1;durP2;ratioP2;P2;SDS_P1;SDS_P2;PMS_P1;PMS_P2;Temp;Humidity;BMP_temperature;BMP_pressure;BME280_temperature;BME280_humidity;BME280_pressure;Samples;Min_cycle;Max_cycle;Signal;HPM_P1;HPM_P2
2022/07/26 00:01:30;;;;;;;14.80;2.65;;;18.30;99.90;;;;;;5073958;28;20119;-77
2022/07/26 00:03:56;;;;;;;9.45;2.15;;;18.40;99.90;;;;;;5074347;28;20487;-78
2022/07/26 00:06:24;;;;;;;13.43;3.10;;;18.40;99.90;;;;;;5094239;28;20036;-79
2022/07/26 00:08:50;;;;;;;10.77;2.60;;;18.40;99.90;;;;;;5059479;28;20115;-79
2022/07/26 00:11:16;;;;;;;13.48;2.90;;;18.40;99.90;;;;;;5093941;28;20506;-79
2022/07/26 00:13:42;;;;;;;16.50;3.33;;;18.40;99.90;;;;;;5075829;28;20055;-79
2022/07/26 00:16:07;;;;;;;17.42;2.95;;;18.40;99.90;;;;;;5059521;28;20490;-79
2022/07/26 00:18:33;;;;;;;13.90;3.05;;;18.40;99.90;;;;;;5075759;28;20046;-79
2022/07/26 00:20:59;;;;;;;13.57;2.70;;;18.40;99.90;;;;;;5075789;28;20040;-77
2022/07/26 00:23:24;;;;;;;9.10;2.38;;;18.40;99.90;;;;;;5056721;28;20076;-78
2022/07/26 00:25:50;;;;;;;15.25;2.75;;;18.40;99.90;;;;;;5056598;28;20082;-78
2022/07/26 00:28:15;;;;;;;17.13;3.25;;;18.30;99.90;;;;;;5056737;28;20031;-78
2022/07/26 00:30:42;;;;;;;16.67;3.33;;;18.30;99.90;;;;;;5056979;28;20075;-78
2022/07/26 00:33:07;;;;;;;11.68;2.40;;;18.20;99.90;;;;;;5092027;28;20538;-78
2022/07/26 00:35:33;;;;;;;15.32;2.92;;;18.20;99.90;;;;;;5091878;28;20079;-78
2022/07/26 00:37:59;;;;;;;13.25;2.63;;;18.20;99.90;;;;;;5091798;28;20130;-78
2022/07/26 00:40:24;;;;;;;20.20;3.10;;;18.10;99.90;;;;;;5091156;28;20502;-78
2022/07/26 00:42:50;;;;;;;10.80;2.63;;;18.00;99.90;;;;;;5073053;28;20040;-78
2022/07/26 00:45:17;;;;;;;13.15;3.35;;;18.00;99.90;;;;;;5091665;28;20051;-78
2022/07/26 00:47:42;;;;;;;17.15;3.10;;;18.00;99.90;;;;;;5073148;28;20042;-78
2022/07/26 00:50:11;;;;;;;11.73;3.75;;;17.90;99.90;;;;;;5072825;28;20044;-78
2022/07/26 00:52:37;;;;;;;15.18;2.92;;;17.90;99.90;;;;;;5091588;28;20044;-78
2022/07/26 00:55:05;;;;;;;9.63;2.67;;;17.80;99.90;;;;;;5056726;28;20472;-77
2022/07/26 00:57:31;;;;;;;13.10;3.22;;;17.80;99.90;;;;;;5091130;28;20044;-78
2022/07/26 00:59:59;;;;;;;13.07;3.25;;;17.70;99.90;;;;;;5074615;28;20048;-80
2022/07/26 01:02:25;;;;;;;11.32;3.78;;;17.60;99.90;;;;;;5094616;28;20032;-80
2022/07/26 01:04:51;;;;;;;17.05;3.97;;;17.70;99.90;;;;;;5077151;28;20055;-80
2022/07/26 01:07:17;;;;;;;21.20;3.72;;;17.70;99.90;;;;;;5094599;28;20039;-79
2022/07/26 01:09:43;;;;;;;14.35;3.60;;;17.70;99.90;;;;;;5076115;28;20545;-80
2022/07/26 01:12:09;;;;;;;16.90;3.45;;;17.70;99.90;;;;;;5059765;28;20064;-80
2022/07/26 01:14:35;;;;;;;19.58;3.65;;;17.60;99.90;;;;;;5076717;28;20395;-80
2022/07/26 01:17:01;;;;;;;13.43;2.95;;;17.60;99.90;;;;;;5059943;28;20048;-80
2022/07/26 01:19:26;;;;;;;16.13;3.15;;;17.60;99.90;;;;;;5076747;28;20040;-80
2022/07/26 01:21:52;;;;;;;17.13;3.63;;;17.60;99.90;;;;;;5077805;28;20039;-80
2022/07/26 01:24:18;;;;;;;15.55;3.40;;;17.60;99.90;;;;;;5059327;28;20506;-80
2022/07/26 01:26:43;;;;;;;12.73;3.17;;;17.60;99.90;;;;;;5076198;28;20506;-80
2022/07/26 01:29:10;;;;;;;14.75;3.03;;;17.70;99.90;;;;;;5076264;28;20047;-80
2022/07/26 01:31:35;;;;;;;14.63;3.53;;;17.70;99.90;;;;;;5076648;28;20491;-81
2022/07/26 01:34:01;;;;;;;10.25;3.08;;;17.70;99.90;;;;;;5095576;28;20101;-80
2022/07/26 01:36:27;;;;;;;18.60;3.45;;;17.60;99.90;;;;;;5078240;28;20119;-80
2022/07/26 01:38:52;;;;;;;8.55;2.70;;;17.60;99.90;;;;;;5080725;28;20040;-80
2022/07/26 01:41:18;;;;;;;23.25;3.97;;;17.60;99.90;;;;;;5099956;28;20040;-80
2022/07/26 01:43:44;;;;;;;13.68;2.92;;;17.60;99.90;;;;;;5099962;28;20044;-80
2022/07/26 01:46:09;;;;;;;21.35;3.80;;;17.50;99.90;;;;;;5100066;28;20040;-80
2022/07/26 01:48:36;;;;;;;9.43;2.95;;;17.50;99.90;;;;;;5081139;28;20043;-78
2022/07/26 01:51:02;;;;;;;11.82;2.80;;;17.40;99.90;;;;;;5098826;28;20043;-79
2022/07/26 01:53:28;;;;;;;9.35;2.63;;;17.40;99.90;;;;;;5063223;28;20086;-79
2022/07/26 01:55:53;;;;;;;16.65;3.30;;;17.40;99.90;;;;;;5096677;28;20063;-79
2022/07/26 01:58:20;;;;;;;13.50;3.28;;;17.30;99.90;;;;;;5096311;28;20043;-79
2022/07/26 02:00:47;;;;;;;20.27;3.40;;;17.30;99.90;;;;;;5077847;28;20036;-79
2022/07/26 02:03:12;;;;;;;16.80;3.97;;;17.30;99.90;;;;;;5096250;28;20036;-79
2022/07/26 02:05:38;;;;;;;15.18;2.92;;;17.20;99.90;;;;;;5061027;28;20055;-79
2022/07/26 02:08:04;;;;;;;14.60;4.03;;;17.30;99.90;;;;;;5077767;28;20044;-79
2022/07/26 02:13:13;;;;;;;15.70;3.58;;;17.20;99.90;;;;;;5077889;28;20411;-78
2022/07/26 02:15:40;;;;;;;15.18;3.72;;;17.20;99.90;;;;;;5061662;28;20052;-79
2022/07/26 02:18:06;;;;;;;18.23;3.58;;;17.20;99.90;;;;;;5063022;28;20051;-79
2022/07/26 02:20:32;;;;;;;16.80;3.67;;;17.20;99.90;;;;;;5062946;28;20039;-79
2022/07/26 02:23:02;;;;;;;15.48;3.70;;;17.20;99.90;;;;;;5079681;28;20048;-79
2022/07/26 02:25:27;;;;;;;12.70;3.10;;;17.20;99.90;;;;;;5079301;28;20077;-79
2022/07/26 02:27:53;;;;;;;14.32;3.38;;;17.20;99.90;;;;;;5079242;28;20044;-79
2022/07/26 02:30:19;;;;;;;18.95;3.95;;;17.20;99.90;;;;;;5062198;28;20050;-79
2022/07/26 02:32:46;;;;;;;10.23;3.63;;;17.30;99.90;;;;;;5079517;28;20048;-79
2022/07/26 02:35:12;;;;;;;18.25;3.70;;;17.30;99.90;;;;;;5070706;28;20039;-78
2022/07/26 02:37:41;;;;;;;12.75;3.47;;;17.20;99.90;;;;;;5090731;28;20064;-79
2022/07/26 02:40:08;;;;;;;12.90;3.33;;;17.30;99.90;;;;;;5067541;28;20105;-79
2022/07/26 02:42:34;;;;;;;14.55;3.75;;;17.30;99.90;;;;;;5062566;28;20044;-78
2022/07/26 02:44:59;;;;;;;16.83;3.72;;;17.30;99.90;;;;;;5079234;28;20036;-78
2022/07/26 02:47:25;;;;;;;12.25;3.38;;;17.30;99.90;;;;;;5079307;28;20128;-79
2022/07/26 02:49:51;;;;;;;11.95;3.40;;;17.30;99.90;;;;;;5063411;28;20394;-79
2022/07/26 02:52:17;;;;;;;12.15;4.05;;;17.40;99.90;;;;;;5064254;28;20040;-78
2022/07/26 02:54:43;;;;;;;18.88;3.75;;;17.30;99.90;;;;;;5079812;28;20044;-79
2022/07/26 02:57:08;;;;;;;12.90;3.05;;;17.40;99.90;;;;;;5062164;28;20062;-79
2022/07/26 02:59:34;;;;;;;11.35;3.42;;;17.30;99.90;;;;;;5061549;28;20483;-79
2022/07/26 03:02:00;;;;;;;12.88;3.25;;;17.40;99.90;;;;;;5078936;28;20135;-79
2022/07/26 03:04:25;;;;;;;14.35;3.40;;;17.40;99.90;;;;;;5078397;28;20048;-78
2022/07/26 03:06:51;;;;;;;13.70;3.50;;;17.40;99.90;;;;;;5077967;28;20028;-79
2022/07/26 03:09:17;;;;;;;13.55;3.75;;;17.40;99.90;;;;;;5077025;28;20039;-79
2022/07/26 03:11:42;;;;;;;21.58;4.47;;;17.50;99.90;;;;;;5059904;28;20173;-79
2022/07/26 03:14:08;;;;;;;14.32;3.38;;;17.50;99.90;;;;;;5077491;28;20067;-79
2022/07/26 03:16:33;;;;;;;10.20;3.00;;;17.50;99.90;;;;;;5076781;28;20153;-79
2022/07/26 03:19:00;;;;;;;14.90;3.92;;;17.40;99.90;;;;;;5060300;28;20414;-79
2022/07/26 03:21:26;;;;;;;11.38;3.40;;;17.40;99.90;;;;;;5060801;28;20526;-79
2022/07/26 03:23:52;;;;;;;13.27;3.53;;;17.40;99.90;;;;;;5076079;28;20052;-79
2022/07/26 03:26:18;;;;;;;12.77;3.67;;;17.30;99.90;;;;;;5060386;28;20079;-79
2022/07/26 03:28:44;;;;;;;13.10;3.60;;;17.30;99.90;;;;;;5077012;28;20055;-79
2022/07/26 03:31:11;;;;;;;8.45;3.33;;;17.30;99.90;;;;;;5077360;28;20040;-79
2022/07/26 03:33:38;;;;;;;8.07;3.05;;;17.20;99.90;;;;;;5059965;28;20507;-79
2022/07/26 03:36:04;;;;;;;12.13;3.80;;;17.20;99.90;;;;;;5077584;28;20104;-79
2022/07/26 03:38:30;;;;;;;9.38;3.22;;;17.30;99.90;;;;;;5061145;28;20055;-79
2022/07/26 03:40:55;;;;;;;10.18;3.78;;;17.30;99.90;;;;;;5077358;28;20036;-79
2022/07/26 03:43:21;;;;;;;7.68;3.28;;;17.30;99.90;;;;;;5060954;28;20044;-79
2022/07/26 03:45:47;;;;;;;9.75;3.97;;;17.30;99.90;;;;;;5061369;28;20052;-79
2022/07/26 03:48:12;;;;;;;12.73;3.95;;;17.40;99.90;;;;;;5060862;28;20058;-79
2022/07/26 03:50:38;;;;;;;9.48;3.65;;;17.40;99.90;;;;;;5059977;28;20040;-79
2022/07/26 03:53:04;;;;;;;6.70;3.15;;;17.40;99.90;;;;;;5076526;28;20104;-79
2022/07/26 03:58:15;;;;;;;7.32;3.58;;;17.40;99.90;;;;;;5076567;28;20078;-80
2022/07/26 04:00:41;;;;;;;5.30;2.85;;;17.40;99.90;;;;;;5093492;28;20032;-80
2022/07/26 04:03:07;;;;;;;6.22;2.72;;;17.30;99.90;;;;;;5059810;28;20536;-80
2022/07/26 04:05:32;;;;;;;6.32;2.63;;;17.30;99.90;;;;;;5059596;28;20039;-79
2022/07/26 04:07:58;;;;;;;5.15;2.50;;;17.30;99.90;;;;;;5075677;28;20040;-79
2022/07/26 04:10:24;;;;;;;4.53;2.33;;;17.30;99.90;;;;;;5058324;28;20040;-80
2022/07/26 04:12:49;;;;;;;6.00;2.42;;;17.20;99.90;;;;;;5059434;28;20104;-79
2022/07/26 04:15:15;;;;;;;10.63;2.67;;;17.20;99.90;;;;;;5076167;28;20096;-79
2022/07/26 04:17:42;;;;;;;7.55;2.40;;;17.20;99.90;;;;;;5075023;28;20055;-79
2022/07/26 04:20:09;;;;;;;10.55;2.80;;;17.20;99.90;;;;;;5074892;28;20055;-79
2022/07/26 04:22:36;;;;;;;4.85;2.13;;;17.30;99.90;;;;;;5058827;28;20036;-79
2022/07/26 04:25:03;;;;;;;7.70;2.40;;;17.20;99.90;;;;;;5075404;28;20032;-79
2022/07/26 04:27:29;;;;;;;5.75;2.25;;;17.30;99.90;;;;;;5075495;28;20051;-79
2022/07/26 04:29:55;;;;;;;5.70;2.10;;;17.40;99.90;;;;;;5074466;28;20043;-79
2022/07/26 04:32:20;;;;;;;9.30;2.35;;;17.30;99.90;;;;;;5075954;28;20036;-79
2022/07/26 04:34:46;;;;;;;7.18;2.63;;;17.30;99.90;;;;;;5080841;28;20036;-79
2022/07/26 04:37:11;;;;;;;9.02;2.30;;;17.20;99.90;;;;;;5091162;28;20036;-79
2022/07/26 04:39:37;;;;;;;6.70;2.33;;;17.30;99.90;;;;;;5090933;28;20044;-79
2022/07/26 04:42:03;;;;;;;6.63;2.10;;;17.30;99.90;;;;;;5075924;28;20047;-79
2022/07/26 04:44:28;;;;;;;5.63;2.00;;;17.30;99.90;;;;;;5074614;28;20086;-79
2022/07/26 04:46:54;;;;;;;8.05;2.13;;;17.30;99.90;;;;;;5074858;28;20032;-79
2022/07/26 04:49:19;;;;;;;6.15;1.83;;;17.40;99.90;;;;;;5074544;28;20092;-78
2022/07/26 04:51:45;;;;;;;3.03;2.05;;;17.30;99.90;;;;;;5058837;28;20513;-79
2022/07/26 04:54:10;;;;;;;5.70;1.83;;;17.30;99.90;;;;;;5075440;28;20044;-79
2022/07/26 04:56:36;;;;;;;12.52;2.28;;;17.30;99.90;;;;;;5074769;28;20075;-79
2022/07/26 04:59:02;;;;;;;4.30;2.28;;;17.30;99.90;;;;;;5058814;28;20040;-78
2022/07/26 05:01:27;;;;;;;7.15;2.20;;;17.30;99.90;;;;;;5058174;28;20040;-79
2022/07/26 05:03:53;;;;;;;5.28;1.75;;;17.40;99.90;;;;;;5072975;28;20047;-78
2022/07/26 05:06:18;;;;;;;6.35;1.75;;;17.40;99.90;;;;;;5073002;28;20032;-78
2022/07/26 05:08:44;;;;;;;5.57;1.88;;;17.50;99.90;;;;;;5073069;28;20217;-79
2022/07/26 05:11:10;;;;;;;4.90;1.83;;;17.50;99.90;;;;;;5072936;28;20031;-78
2022/07/26 05:13:35;;;;;;;5.07;2.08;;;17.60;99.90;;;;;;5073404;28;20113;-78
2022/07/26 05:16:01;;;;;;;5.82;2.60;;;17.60;99.90;;;;;;5072923;28;20040;-78
2022/07/26 05:18:28;;;;;;;9.18;2.30;;;17.60;99.90;;;;;;5073125;28;20501;-78
2022/07/26 05:20:54;;;;;;;8.50;1.90;;;17.60;99.90;;;;;;5072997;28;20051;-78
2022/07/26 05:23:19;;;;;;;11.23;2.25;;;17.60;99.90;;;;;;5072918;28;20700;-78
2022/07/26 05:25:45;;;;;;;4.70;1.77;;;17.60;99.90;;;;;;5072922;28;20051;-78
2022/07/26 05:28:10;;;;;;;5.75;1.60;;;17.60;99.90;;;;;;5056316;28;20393;-78
2022/07/26 05:30:36;;;;;;;8.18;1.80;;;17.70;99.90;;;;;;5073089;28;20495;-78
2022/07/26 05:33:02;;;;;;;11.50;1.90;;;17.70;99.90;;;;;;5056227;28;20047;-78
2022/07/26 05:35:28;;;;;;;5.45;1.63;;;17.70;99.90;;;;;;5073758;28;20464;-79
2022/07/26 05:37:54;;;;;;;5.70;2.00;;;17.80;99.90;;;;;;5073107;28;20054;-78
2022/07/26 05:40:19;;;;;;;5.10;1.73;;;17.80;99.90;;;;;;5072443;28;20166;-79
2022/07/26 05:42:45;;;;;;;5.70;1.50;;;17.80;99.90;;;;;;5090970;28;20048;-78
2022/07/26 05:45:11;;;;;;;7.03;1.42;;;18.00;99.90;;;;;;5090928;28;20517;-78
2022/07/26 05:47:36;;;;;;;4.65;1.30;;;17.90;99.90;;;;;;5090758;28;20035;-79
2022/07/26 05:50:03;;;;;;;3.10;1.05;;;18.00;99.90;;;;;;5072927;28;20755;-78
2022/07/26 05:52:29;;;;;;;5.93;1.67;;;17.90;99.90;;;;;;5056132;28;20506;-79
2022/07/26 05:54:55;;;;;;;7.47;1.25;;;17.90;99.90;;;;;;5073851;28;20043;-78
2022/07/26 05:57:20;;;;;;;6.93;1.05;;;17.80;99.90;;;;;;5073161;28;20043;-78
2022/07/26 05:59:46;;;;;;;3.10;0.80;;;17.70;99.90;;;;;;5091370;28;20032;-79
2022/07/26 06:02:11;;;;;;;2.42;0.52;;;17.60;99.90;;;;;;5073675;28;20036;-79
2022/07/26 06:04:37;;;;;;;4.15;0.73;;;17.50;99.90;;;;;;5056670;28;20042;-79
2022/07/26 06:07:03;;;;;;;4.20;0.90;;;17.50;99.90;;;;;;5056553;28;20404;-79
2022/07/26 06:09:28;;;;;;;6.22;0.90;;;17.50;99.90;;;;;;5072878;28;20066;-79
2022/07/26 06:11:54;;;;;;;4.60;1.08;;;17.40;99.90;;;;;;5090983;28;20055;-79
2022/07/26 06:14:20;;;;;;;6.47;1.15;;;17.40;99.90;;;;;;5072826;28;20044;-79
2022/07/26 06:16:46;;;;;;;1.65;0.82;;;17.40;99.90;;;;;;5072922;28;20147;-78
2022/07/26 06:19:12;;;;;;;5.63;0.70;;;17.40;99.90;;;;;;5072757;28;20109;-78
2022/07/26 06:21:38;;;;;;;4.88;0.90;;;17.50;99.90;;;;;;5072393;28;20041;-78
2022/07/26 06:24:04;;;;;;;2.40;0.77;;;17.80;99.90;;;;;;5075225;28;20046;-78
2022/07/26 06:26:29;;;;;;;4.57;0.85;;;18.00;99.90;;;;;;5094536;28;20119;-78
2022/07/26 06:28:55;;;;;;;4.03;0.90;;;18.30;99.90;;;;;;5059457;28;20185;-78
2022/07/26 06:31:21;;;;;;;2.75;0.90;;;18.50;99.90;;;;;;5075330;28;20051;-78
2022/07/26 06:33:47;;;;;;;1.65;0.60;;;18.50;99.90;;;;;;5075589;28;20044;-79
2022/07/26 06:36:13;;;;;;;7.85;0.85;;;18.50;99.90;;;;;;5076226;28;20670;-78
2022/07/26 06:38:39;;;;;;;4.30;0.68;;;18.50;99.90;;;;;;5094005;28;20115;-78
2022/07/26 06:41:04;;;;;;;3.53;1.05;;;18.40;99.90;;;;;;5093852;28;20075;-78
2022/07/26 06:43:30;;;;;;;3.20;0.95;;;18.20;99.90;;;;;;5075685;28;20047;-79
2022/07/26 06:45:56;;;;;;;1.55;0.65;;;18.10;99.90;;;;;;5093941;28;20072;-78
2022/07/26 06:48:21;;;;;;;5.07;0.88;;;17.90;99.90;;;;;;5093818;28;20100;-78
2022/07/26 06:50:47;;;;;;;2.28;0.90;;;17.80;99.90;;;;;;5075258;28;20399;-77
2022/07/26 06:53:13;;;;;;;5.72;0.90;;;17.80;99.90;;;;;;5093310;28;20509;-78
2022/07/26 06:55:40;;;;;;;3.28;0.70;;;17.80;99.90;;;;;;5075317;28;20044;-78
2022/07/26 06:58:05;;;;;;;2.88;0.82;;;17.80;99.90;;;;;;5074931;28;20442;-77
2022/07/26 07:00:31;;;;;;;5.88;0.60;;;17.90;99.90;;;;;;5074591;28;20036;-78
2022/07/26 07:02:57;;;;;;;8.45;1.13;;;18.00;99.90;;;;;;5093394;28;20486;-78
2022/07/26 07:05:22;;;;;;;7.75;1.10;;;18.10;99.90;;;;;;5074833;28;20068;-78
2022/07/26 07:07:48;;;;;;;3.90;0.63;;;18.20;99.90;;;;;;5058447;28;20043;-76
2022/07/26 07:10:14;;;;;;;3.67;0.90;;;18.30;99.90;;;;;;5092512;28;20039;-78
2022/07/26 07:12:40;;;;;;;3.92;0.80;;;18.30;99.90;;;;;;5075276;28;20047;-77
2022/07/26 07:15:06;;;;;;;3.70;0.85;;;18.20;99.90;;;;;;5075295;28;20090;-76
2022/07/26 07:17:33;;;;;;;4.53;0.88;;;18.10;99.90;;;;;;5058287;28;20093;-77
2022/07/26 07:19:59;;;;;;;4.18;0.88;;;18.00;99.90;;;;;;5057638;28;20036;-79
2022/07/26 07:22:25;;;;;;;1.83;0.50;;;17.80;99.90;;;;;;5058607;28;20036;-76
2022/07/26 07:24:50;;;;;;;2.25;0.30;;;17.70;99.90;;;;;;5075045;28;20055;-77
2022/07/26 07:27:16;;;;;;;4.22;0.57;;;17.50;99.90;;;;;;5057642;28;20036;-78
2022/07/26 07:29:42;;;;;;;5.53;0.50;;;17.50;99.90;;;;;;5057094;28;20051;-78
2022/07/26 07:32:08;;;;;;;4.57;0.85;;;17.40;99.90;;;;;;5074568;28;20035;-82
2022/07/26 07:34:33;;;;;;;3.92;0.82;;;17.40;99.90;;;;;;5057646;28;20040;-81
2022/07/26 07:36:59;;;;;;;5.13;0.68;;;17.60;99.90;;;;;;5075298;28;20122;-82
2022/07/26 07:39:25;;;;;;;5.45;0.60;;;17.80;99.90;;;;;;5076700;28;20028;-83
2022/07/26 07:41:50;;;;;;;1.48;0.40;;;18.00;99.90;;;;;;5075334;28;20495;-82
2022/07/26 07:44:16;;;;;;;2.47;0.70;;;18.10;99.90;;;;;;5075509;28;20512;-81
2022/07/26 07:46:42;;;;;;;5.90;1.20;;;18.10;99.90;;;;;;5076164;28;20073;-81
2022/07/26 07:49:09;;;;;;;2.55;0.60;;;18.20;99.90;;;;;;5076024;28;20071;-80
2022/07/26 07:51:35;;;;;;;16.40;7.97;;;18.30;99.90;;;;;;5076998;28;20062;-79
2022/07/26 07:54:01;;;;;;;7.38;1.20;;;18.70;99.90;;;;;;5077765;28;20087;-82
2022/07/26 07:56:27;;;;;;;4.07;0.90;;;19.00;99.90;;;;;;5062106;28;20483;-83
2022/07/26 07:58:52;;;;;;;3.92;0.55;;;19.30;99.90;;;;;;5077309;28;20040;-82
2022/07/26 08:01:18;;;;;;;5.15;0.55;;;19.50;99.90;;;;;;5057325;28;20607;-79
2022/07/26 08:03:43;;;;;;;3.33;0.50;;;19.50;99.90;;;;;;5092464;28;20040;-81
2022/07/26 08:06:09;;;;;;;1.85;0.40;;;19.20;99.90;;;;;;5071026;28;20059;-82
2022/07/26 08:08:36;;;;;;;1.45;0.30;;;18.80;99.90;;;;;;5073091;28;20058;-80
2022/07/26 08:11:04;;;;;;;1.38;0.30;;;18.40;99.90;;;;;;5055030;28;20070;-81
2022/07/26 08:13:29;;;;;;;1.50;0.35;;;18.20;99.90;;;;;;5074112;28;20505;-80
2022/07/26 08:15:55;;;;;;;1.50;0.20;;;18.00;99.90;;;;;;5056113;28;20056;-81
2022/07/26 08:18:22;;;;;;;4.88;0.30;;;17.90;99.90;;;;;;5070302;28;20055;-80
2022/07/26 08:20:47;;;;;;;3.30;0.85;;;18.20;99.90;;;;;;5056576;28;20040;-80
2022/07/26 08:23:13;;;;;;;2.63;0.40;;;18.60;99.90;;;;;;5072936;28;20517;-81
2022/07/26 08:25:39;;;;;;;2.80;0.40;;;19.30;99.90;;;;;;5071797;28;20399;-80
2022/07/26 08:28:05;;;;;;;2.45;0.45;;;19.80;99.90;;;;;;5072567;28;20120;-81
2022/07/26 08:30:31;;;;;;;2.33;0.60;;;20.20;99.90;;;;;;5071786;28;20419;-81
2022/07/26 08:32:57;;;;;;;3.20;0.65;;;20.40;99.90;;;;;;5055933;28;20040;-81
2022/07/26 08:35:23;;;;;;;2.40;0.68;;;20.50;99.90;;;;;;5071185;28;20046;-82
2022/07/26 08:37:49;;;;;;;3.80;0.50;;;20.70;99.90;;;;;;5054954;28;20075;-80
2022/07/26 08:40:14;;;;;;;5.80;0.88;;;20.70;99.90;;;;;;5070808;28;20152;-81
2022/07/26 08:42:54;;;;;;;4.10;0.77;;;20.80;99.90;;;;;;5081863;28;20071;-81
2022/07/26 08:45:25;;;;;;;3.08;1.05;;;20.90;99.90;;;;;;5112129;28;20071;-81
2022/07/26 08:47:51;;;;;;;2.95;0.50;;;21.00;99.90;;;;;;5113086;28;20032;-74
2022/07/26 08:50:16;;;;;;;4.65;0.60;;;21.20;99.90;;;;;;5090167;28;20032;-81
2022/07/26 08:52:42;;;;;;;2.28;0.40;;;21.30;99.90;;;;;;5053545;28;20589;-81
2022/07/26 08:55:09;;;;;;;2.45;0.40;;;21.30;99.90;;;;;;5084225;28;20483;-80
2022/07/26 08:57:35;;;;;;;2.20;0.60;;;21.10;99.90;;;;;;5065662;28;20039;-79
2022/07/26 09:00:19;;;;;;;2.72;0.90;;;20.90;99.90;;;;;;5066874;28;20043;-81
2022/07/26 09:02:46;;;;;;;3.35;0.60;;;20.90;99.90;;;;;;5066753;28;20055;-80
2022/07/26 09:05:12;;;;;;;3.90;0.68;;;21.10;99.90;;;;;;5083435;28;20408;-81
2022/07/26 09:07:38;;;;;;;5.28;1.05;;;21.40;99.90;;;;;;5065747;28;20028;-81
2022/07/26 09:10:11;;;;;;;4.65;0.73;;;21.60;99.90;;;;;;5067181;28;20712;-80
2022/07/26 09:12:37;;;;;;;4.38;0.90;;;21.40;99.90;;;;;;5049895;28;20071;-79
2022/07/26 09:15:06;;;;;;;3.58;0.55;;;20.90;99.90;;;;;;5065472;28;20549;-79
2022/07/26 09:17:39;;;;;;;6.57;0.85;;;20.40;99.90;;;;;;5080200;28;20443;-81
2022/07/26 09:20:10;;;;;;;3.92;0.52;;;19.80;99.90;;;;;;5050655;28;20028;-80
2022/07/26 09:23:03;;;;;;;4.37;1.03;;;19.50;99.90;;;;;;5052104;28;20131;-82
2022/07/26 09:25:38;;;;;;;1.85;0.73;;;19.20;99.90;;;;;;5051056;28;20045;-80
2022/07/26 09:28:23;;;;;;;3.92;0.70;;;19.10;99.90;;;;;;5050394;28;20041;-80
2022/07/26 09:30:58;;;;;;;3.78;0.80;;;19.10;99.90;;;;;;5068367;28;20028;-81
2022/07/26 09:33:24;;;;;;;5.03;0.82;;;19.40;99.90;;;;;;5065532;28;20066;-80
2022/07/26 09:36:01;;;;;;;2.63;0.68;;;19.80;99.90;;;;;;5065031;28;20039;-81
2022/07/26 09:38:38;;;;;;;2.92;0.90;;;20.20;99.90;;;;;;5053066;28;20044;-79
2022/07/26 09:41:36;;;;;;;2.40;0.45;;;20.90;99.90;;;;;;5065937;28;20044;-81
2022/07/26 09:44:18;;;;;;;6.13;0.90;;;21.40;99.90;;;;;;5064547;28;20406;-84
2022/07/26 09:46:56;;;;;;;3.58;0.77;;;21.80;99.90;;;;;;5065586;28;20551;-84
2022/07/26 09:49:24;;;;;;;5.53;0.80;;;22.10;99.90;;;;;;5067934;28;20372;-83
2022/07/26 09:51:52;;;;;;;5.07;0.98;;;22.30;99.90;;;;;;5064611;28;20040;-83
2022/07/26 09:54:29;;;;;;;7.53;1.10;;;22.30;99.90;;;;;;5064793;28;20040;-83
2022/07/26 09:56:55;;;;;;;14.82;1.80;;;22.10;99.90;;;;;;5066138;28;20032;-83
2022/07/26 09:59:23;;;;;;;5.10;0.95;;;21.80;99.90;;;;;;5070240;28;20054;-83
2022/07/26 10:01:51;;;;;;;5.13;0.98;;;21.40;99.90;;;;;;5070482;28;20075;-81
2022/07/26 10:04:18;;;;;;;1.80;0.63;;;21.20;99.90;;;;;;5067782;28;20032;-80
2022/07/26 10:06:44;;;;;;;13.38;1.60;;;20.90;99.90;;;;;;5069218;28;20068;-82
2022/07/26 10:09:11;;;;;;;3.03;0.52;;;20.70;99.90;;;;;;5070291;28;20036;-83
2022/07/26 10:11:44;;;;;;;3.13;0.60;;;20.70;99.90;;;;;;5070050;28;20119;-83
2022/07/26 10:14:32;;;;;;;2.08;0.73;;;20.60;99.90;;;;;;5072620;28;20078;-85
2022/07/26 10:17:17;;;;;;;4.38;0.98;;;20.70;99.90;;;;;;5068347;28;20064;-85
2022/07/26 10:19:43;;;;;;;3.65;0.98;;;20.70;99.90;;;;;;5069599;28;20063;-83
2022/07/26 10:22:45;;;;;;;2.17;0.70;;;20.60;99.90;;;;;;5070185;28;20119;-83
2022/07/26 10:25:16;;;;;;;4.63;0.95;;;20.70;99.90;;;;;;5054572;28;20403;-86
2022/07/26 10:27:43;;;;;;;7.05;1.42;;;21.00;99.90;;;;;;5069827;28;20048;-84
2022/07/26 10:30:18;;;;;;;5.65;1.10;;;21.10;99.90;;;;;;5053770;28;20035;-84
2022/07/26 10:32:58;;;;;;;3.85;0.77;;;21.20;99.90;;;;;;5058678;28;20046;-83
2022/07/26 10:35:33;;;;;;;8.70;2.45;;;21.00;99.90;;;;;;5068381;28;20051;-82
2022/07/26 10:38:13;;;;;;;4.45;1.50;;;20.90;99.90;;;;;;5054411;28;20067;-82
2022/07/26 10:41:01;;;;;;;6.68;1.67;;;20.70;99.90;;;;;;5064914;28;20043;-82
2022/07/26 10:43:27;;;;;;;7.20;1.23;;;20.60;99.90;;;;;;5072734;28;20043;-83
2022/07/26 10:46:15;;;;;;;5.68;1.33;;;20.50;99.90;;;;;;5056180;28;20534;-82
2022/07/26 10:49:02;;;;;;;8.50;1.67;;;20.50;99.90;;;;;;5056040;28;20032;-82
2022/07/26 10:51:41;;;;;;;4.13;1.90;;;20.50;99.90;;;;;;5070346;28;20395;-81
2022/07/26 10:54:09;;;;;;;9.15;1.70;;;20.40;99.90;;;;;;5071245;28;20059;-82
2022/07/26 10:56:35;;;;;;;6.55;1.73;;;20.40;99.90;;;;;;5068965;28;20391;-82
2022/07/26 10:59:02;;;;;;;5.70;1.55;;;20.40;99.90;;;;;;5069348;28;20128;-82
2022/07/26 11:01:33;;;;;;;7.53;2.40;;;20.30;99.90;;;;;;5070501;28;20047;-83
2022/07/26 11:03:58;;;;;;;8.07;2.30;;;20.20;99.90;;;;;;5069959;28;20051;-82
2022/07/26 11:06:27;;;;;;;12.65;2.15;;;20.10;99.90;;;;;;5068641;28;20062;-82
2022/07/26 11:08:52;;;;;;;6.53;1.77;;;20.10;99.90;;;;;;5070578;28;20036;-83
2022/07/26 11:11:32;;;;;;;7.22;1.98;;;20.10;99.90;;;;;;5070100;28;20636;-83
2022/07/26 11:14:09;;;;;;;10.55;1.63;;;20.20;99.90;;;;;;5056530;28;20032;-83
2022/07/26 11:16:51;;;;;;;9.80;2.13;;;20.40;99.90;;;;;;5071765;28;20058;-82
2022/07/26 11:19:23;;;;;;;5.35;1.60;;;20.50;99.90;;;;;;5071494;28;20040;-81
2022/07/26 11:21:57;;;;;;;8.00;1.73;;;20.60;99.90;;;;;;5071977;28;20575;-82
2022/07/26 11:24:25;;;;;;;5.57;1.42;;;20.50;99.90;;;;;;5071593;28;20040;-82
2022/07/26 11:26:51;;;;;;;6.35;1.60;;;20.50;99.90;;;;;;5069303;28;20044;-80
2022/07/26 11:29:33;;;;;;;7.30;1.77;;;20.40;99.90;;;;;;5068999;28;20608;-83
2022/07/26 11:31:59;;;;;;;6.10;1.48;;;20.40;99.90;;;;;;5086801;28;20040;-84
2022/07/26 11:34:27;;;;;;;6.68;1.33;;;20.20;99.90;;;;;;5071287;28;20063;-81
2022/07/26 11:36:55;;;;;;;4.63;1.40;;;20.10;99.90;;;;;;5069682;28;20104;-81
2022/07/26 11:39:22;;;;;;;8.57;1.58;;;20.00;99.90;;;;;;5067338;28;20043;-80
2022/07/26 11:41:48;;;;;;;6.28;1.45;;;19.90;99.90;;;;;;5067417;28;20074;-81
2022/07/26 11:44:22;;;;;;;7.53;1.67;;;19.80;99.90;;;;;;5071071;28;20036;-81
2022/07/26 11:46:49;;;;;;;6.72;1.25;;;19.80;99.90;;;;;;5069553;28;20040;-82
2022/07/26 11:49:27;;;;;;;9.85;1.48;;;19.80;99.90;;;;;;5068306;28;20036;-83
2022/07/26 11:51:55;;;;;;;10.70;1.50;;;19.80;99.90;;;;;;5066793;28;20047;-83
2022/07/26 11:54:23;;;;;;;12.45;1.45;;;19.80;99.90;;;;;;5070198;28;20567;-82
2022/07/26 11:56:56;;;;;;;6.18;1.73;;;19.80;99.90;;;;;;5070369;28;20043;-80
2022/07/26 11:59:34;;;;;;;8.15;1.65;;;19.80;99.90;;;;;;5069049;28;20040;-81
2022/07/26 12:02:01;;;;;;;8.18;1.38;;;19.70;99.90;;;;;;5052592;28;20142;-82
2022/07/26 12:04:32;;;;;;;8.20;1.88;;;19.70;99.90;;;;;;5068228;28;20048;-81
2022/07/26 12:06:59;;;;;;;6.65;1.73;;;19.60;99.90;;;;;;5053411;28;20448;-82
2022/07/26 12:09:42;;;;;;;9.00;1.15;;;19.60;99.90;;;;;;5067978;28;20522;-82
2022/07/26 12:12:17;;;;;;;4.97;1.17;;;19.60;99.90;;;;;;5068486;28;20120;-81
2022/07/26 12:14:53;;;;;;;5.68;1.20;;;19.60;99.90;;;;;;5049651;28;20032;-81
2022/07/26 12:17:19;;;;;;;6.72;1.52;;;19.70;99.90;;;;;;5052100;28;20044;-82
2022/07/26 12:19:45;;;;;;;6.78;1.00;;;19.90;99.90;;;;;;5053735;28;20126;-81
2022/07/26 12:22:13;;;;;;;7.47;1.27;;;20.10;99.90;;;;;;5069972;28;20495;-82
2022/07/26 12:24:51;;;;;;;4.40;1.00;;;20.30;99.90;;;;;;5069458;28;20074;-81
2022/07/26 12:27:25;;;;;;;7.32;1.20;;;20.60;99.90;;;;;;5064572;28;20032;-82
2022/07/26 12:29:54;;;;;;;6.50;1.00;;;20.90;99.90;;;;;;5070132;28;20119;-82
2022/07/26 12:32:22;;;;;;;6.57;1.73;;;21.10;99.90;;;;;;5067437;28;20131;-82
2022/07/26 12:34:57;;;;;;;3.30;0.90;;;21.20;99.90;;;;;;5068887;28;20040;-83
2022/07/26 12:37:23;;;;;;;4.68;1.50;;;21.20;99.90;;;;;;5066111;28;20040;-82
2022/07/26 12:40:09;;;;;;;7.72;1.25;;;21.30;99.90;;;;;;5070524;28;20558;-82
2022/07/26 12:42:38;;;;;;;6.60;0.90;;;21.40;99.90;;;;;;5068521;28;20046;-81
2022/07/26 12:45:07;;;;;;;4.28;0.90;;;21.40;99.90;;;;;;5065748;28;20036;-80
2022/07/26 12:47:34;;;;;;;3.13;0.60;;;21.60;99.90;;;;;;5068391;28;20047;-82
2022/07/26 12:50:02;;;;;;;1.63;0.85;;;21.90;99.90;;;;;;5081689;28;20495;-81
2022/07/26 12:52:27;;;;;;;4.88;1.20;;;22.20;99.90;;;;;;5071644;28;20542;-81